地図

経路データ

SID SEASON NUMBER BASIN SUBBASIN NAME ISO_TIME NATURE LAT LON WMO_WIND WMO_PRES WMO_AGENCY TRACK_TYPE DIST2LAND LANDFALL IFLAG USA_AGENCY USA_ATCF_ID USA_LAT USA_LON USA_RECORD USA_STATUS USA_WIND USA_PRES USA_SSHS USA_R34_NE USA_R34_SE USA_R34_SW USA_R34_NW USA_R50_NE USA_R50_SE USA_R50_SW USA_R50_NW USA_R64_NE USA_R64_SE USA_R64_SW USA_R64_NW USA_POCI USA_ROCI USA_RMW USA_EYE TOKYO_LAT TOKYO_LON TOKYO_GRADE TOKYO_WIND TOKYO_PRES TOKYO_R50_DIR TOKYO_R50_LONG TOKYO_R50_SHORT TOKYO_R30_DIR TOKYO_R30_LONG TOKYO_R30_SHORT TOKYO_LAND CMA_LAT CMA_LON CMA_CAT CMA_WIND CMA_PRES HKO_LAT HKO_LON HKO_CAT HKO_WIND HKO_PRES NEWDELHI_LAT NEWDELHI_LON NEWDELHI_GRADE NEWDELHI_WIND NEWDELHI_PRES NEWDELHI_CI NEWDELHI_DP NEWDELHI_POCI REUNION_LAT REUNION_LON REUNION_TYPE REUNION_WIND REUNION_PRES REUNION_TNUM REUNION_CI REUNION_RMW REUNION_R34_NE REUNION_R34_SE REUNION_R34_SW REUNION_R34_NW REUNION_R50_NE REUNION_R50_SE REUNION_R50_SW REUNION_R50_NW REUNION_R64_NE REUNION_R64_SE REUNION_R64_SW REUNION_R64_NW BOM_LAT BOM_LON BOM_TYPE BOM_WIND BOM_PRES BOM_TNUM BOM_CI BOM_RMW BOM_R34_NE BOM_R34_SE BOM_R34_SW BOM_R34_NW BOM_R50_NE BOM_R50_SE BOM_R50_SW BOM_R50_NW BOM_R64_NE BOM_R64_SE BOM_R64_SW BOM_R64_NW BOM_ROCI BOM_POCI BOM_EYE BOM_POS_METHOD BOM_PRES_METHOD NADI_LAT NADI_LON NADI_CAT NADI_WIND NADI_PRES WELLINGTON_LAT WELLINGTON_LON WELLINGTON_WIND WELLINGTON_PRES DS824_LAT DS824_LON DS824_STAGE DS824_WIND DS824_PRES TD9636_LAT TD9636_LON TD9636_STAGE TD9636_WIND TD9636_PRES TD9635_LAT TD9635_LON TD9635_WIND TD9635_PRES TD9635_ROCI NEUMANN_LAT NEUMANN_LON NEUMANN_CLASS NEUMANN_WIND NEUMANN_PRES MLC_LAT MLC_LON MLC_CLASS MLC_WIND MLC_PRES USA_GUST BOM_GUST BOM_GUST_PER REUNION_GUST REUNION_GUST_PER USA_SEAHGT USA_SEARAD_NE USA_SEARAD_SE USA_SEARAD_SW USA_SEARAD_NW STORM_SPEED STORM_DIR
1971141N07156 1971 49 WP MM DINAH 1971-05-21 00:00:00 NR 7.20000 156.000 main 1245 1222 __________O___ -1 7.20000 156.000 1 20 15 282
1971141N07156 1971 49 WP MM DINAH 1971-05-21 03:00:00 NR 7.36202 155.243 main 1228 1210 __________P___ -1 7.36202 155.243 1 20 15 282
1971141N07156 1971 49 WP MM DINAH 1971-05-21 06:00:00 NR 7.51874 154.488 main 1210 1201 __________P___ -1 7.51874 154.488 1 20 15 282
1971141N07156 1971 49 WP MM DINAH 1971-05-21 09:00:00 NR 7.66607 153.739 main 1206 1195 __________P___ -1 7.66607 153.739 1 20 15 281
1971141N07156 1971 49 WP MM DINAH 1971-05-21 12:00:00 NR 7.80000 153.000 main 1199 1193 __________O___ -1 7.80000 153.000 1 20 15 280
1971141N07156 1971 49 WP MM DINAH 1971-05-21 15:00:00 NR 7.91777 152.270 main 1197 1195 __________P___ -1 7.91777 152.270 1 20 15 279
1971141N07156 1971 49 WP MM DINAH 1971-05-21 18:00:00 NR 8.02153 151.537 main 1200 1199 __________P___ -1 8.02153 151.537 1 20 15 278
1971141N07156 1971 49 WP MM DINAH 1971-05-21 21:00:00 NR 8.11455 150.786 main 1203 1189 __________P___ -1 8.11455 150.786 1 20 15 277
1971141N07156 1971 49 WP MM DINAH 1971-05-22 00:00:00 NR 8.20000 150.000 main 1189 1177 __________O___ -1 8.20000 150.000 1 20 16 276
1971141N07156 1971 49 WP MM DINAH 1971-05-22 03:00:00 NR 8.28605 149.161 main 1182 1171 __________P___ -1 8.28605 149.161 1 21 17 276
1971141N07156 1971 49 WP MM DINAH 1971-05-22 06:00:00 NR 8.36470 148.287 main 1180 1176 __________P___ -1 8.36470 148.287 1 22 18 275
1971141N07156 1971 49 WP MM DINAH 1971-05-22 09:00:00 NR 8.43597 147.395 main 1176 1176 __________P___ -1 8.43597 147.395 1 23 18 274
1971141N07156 1971 49 WP MM DINAH 1971-05-22 12:00:00 NR 8.50000 146.500 main 1187 1187 __________O___ -1 8.50000 146.500 1 25 17 273
1971141N07156 1971 49 WP MM DINAH 1971-05-22 15:00:00 NR 8.53116 145.685 main 1191 1191 __________P___ -1 8.53116 145.685 1 25 16 272
1971141N07156 1971 49 WP MM DINAH 1971-05-22 18:00:00 NR 8.55998 144.861 main 1213 1213 __________P___ -1 8.55998 144.861 1 25 17 273
1971141N07156 1971 49 WP MM DINAH 1971-05-22 21:00:00 NR 8.60891 143.981 main 1233 1233 __________P___ -1 8.60891 143.981 1 25 18 274
1971141N07156 1971 49 WP MM DINAH 1971-05-23 00:00:00 NR 8.70000 143.000 main 1269 1239 __________O___ -1 8.70000 143.000 1 25 22 277
1971141N07156 1971 49 WP MM DINAH 1971-05-23 03:00:00 NR 8.87107 141.778 main 1242 1206 __________P___ -1 8.87107 141.778 1 26 26 277
1971141N07156 1971 49 WP MM DINAH 1971-05-23 06:00:00 TS 9.02442 140.371 1006 tokyo main 1206 1182 _O________P___ -1 8.80000 140.000 2 1006 0 0 0 9.08052 140.464 1 27 25 278
1971141N07156 1971 49 WP MM DINAH 1971-05-23 09:00:00 TS 9.22046 139.230 main 1178 1168 _P________P___ -1 9.06271 139.353 2 1006 0 0 9.29934 139.168 1 28 21 281
1971141N07156 1971 49 WP MM DINAH 1971-05-23 12:00:00 TS 9.41429 138.300 1007 tokyo main 1170 1166 _O________O___ -1 9.30000 138.700 2 1007 0 0 0 9.50000 138.000 1 30 17 282
1971141N07156 1971 49 WP MM DINAH 1971-05-23 15:00:00 TS 9.56184 137.574 main 1175 1154 _P________P___ -1 9.49992 138.042 2 1006 0 0 9.62377 137.106 1 30 15 281
1971141N07156 1971 49 WP MM DINAH 1971-05-23 18:00:00 TS 9.69196 136.833 1006 tokyo main 1144 1084 _OO_______P___ -1 9.70000 137.400 2 1006 0 0 0 9.50000 136.500 0 19 1005 9.73192 136.349 1 30 14 283
1971141N07156 1971 49 WP MM DINAH 1971-05-23 21:00:00 TS 9.87715 136.189 main 1084 1025 _PP_______P___ -1 9.96481 136.800 2 1006 0 0 9.75764 136.008 0 19 1005 9.84925 135.668 1 30 13 287
1971141N07156 1971 49 WP MM DINAH 1971-05-24 00:00:00 TS 10.0727 135.573 1006 tokyo main 1025 964 _OO_______O___ -1 10.2000 136.200 2 1006 0 0 0 10.0000 135.500 0 19 1005 10.0000 135.000 1 30 13 287
1971141N07156 1971 49 WP MM DINAH 1971-05-24 03:00:00 TS 10.2546 134.920 main 957 895 _PP_______P___ -1 10.3149 135.565 2 1005 0 0 10.2149 134.965 0 19 1005 10.2342 134.230 1 33 13 286
1971141N07156 1971 49 WP MM DINAH 1971-05-24 06:00:00 TS 10.4333 134.254 1004 tokyo main 895 825 _OO_______P___ -1 10.4000 134.900 2 1004 0 0 0 10.4000 134.400 0 19 1005 10.4998 133.463 1 37 14 285
1971141N07156 1971 49 WP MM DINAH 1971-05-24 09:00:00 TS 10.6118 133.579 main 825 755 _PP_______P___ -1 10.5198 134.215 2 1004 0 0 10.5499 133.807 0 19 1005 10.7655 132.715 1 41 14 285
1971141N07156 1971 49 WP MM DINAH 1971-05-24 12:00:00 TS 10.8000 132.900 1004 tokyo main 755 698 _OO_______O___ -1 10.7000 133.500 2 1004 0 0 0 10.7000 133.200 0 19 1005 11.0000 132.000 2 45 14 287
1971141N07156 1971 49 WP MM DINAH 1971-05-24 15:00:00 TS 11.0087 132.231 main 687 632 _PP_______P___ -1 10.9999 132.758 2 1004 0 0 10.8697 132.622 0 19 1005 11.1564 131.314 2 47 14 288
1971141N07156 1971 49 WP MM DINAH 1971-05-24 18:00:00 TS 11.2265 131.556 1004 tokyo main 632 558 _OO_______P___ -1 11.3000 132.000 2 1004 0 0 0 11.1000 132.000 0 19 1005 11.2795 130.667 2 50 14 287
1971141N07156 1971 49 WP MM DINAH 1971-05-24 21:00:00 TS 11.4342 130.854 main 558 484 _PP_______P___ -1 11.4648 131.250 2 1002 0 0 11.4501 131.250 0 21 1005 11.3878 130.061 2 52 14 287
1971141N07156 1971 49 WP MM DINAH 1971-05-25 00:00:00 TS 11.6333 130.167 1000 tokyo main 484 424 _OO_______O___ -1 11.6000 130.500 2 1000 0 0 0 11.8000 130.500 1 23 1005 11.5000 129.500 2 55 13 287
1971141N07156 1971 49 WP MM DINAH 1971-05-25 03:00:00 TS 11.8365 129.546 main 413 376 _PP_______P___ -1 11.8149 129.735 2 999 0 0 12.0446 129.900 1 26 1002 11.6501 129.002 2 58 12 288
1971141N07156 1971 49 WP MM DINAH 1971-05-25 06:00:00 TS 11.9953 129.023 998 tokyo main 366 309 OOOO_____OPO__ jtwc_wp WP081971 12.1000 129.200 55 0 12.0000 129.000 9 998 0 0 0 12.2000 129.300 1 29 1000 11.6000 129.400 TS 40 990 12.1000 129.200 TC 55 11.8063 128.542 2 62 12.1000 129.200 55 983 180 12 282
1971141N07156 1971 49 WP MM DINAH 1971-05-25 09:00:00 TS 12.0826 128.360 main 309 239 PPPP_____PPP__ WP081971 12.0957 128.360 62 0 12.0722 128.335 9 991 0 0 12.2875 128.572 1 38 995 11.9006 128.533 TS 45 987 12.0957 128.360 TC 62 11.9594 128.086 2 66 12.0957 128.360 62 979 180 13 276
1971141N07156 1971 49 WP MM DINAH 1971-05-25 12:00:00 TS 12.1333 127.663 985 tokyo main 239 163 OOOO_____OOO__ jtwc_wp WP081971 12.1000 127.600 70 1 12.1000 127.700 9 985 0 0 0 12.3000 127.800 3 48 990 12.1000 127.700 STS 50 985 12.1000 127.600 TC 70 12.1000 127.600 3 70 12.1000 127.600 70 976 180 13 273
1971141N07156 1971 49 WP MM DINAH 1971-05-25 15:00:00 TS 12.1541 127.002 main 163 97 PPPP_____PPP__ WP081971 12.1272 126.970 80 1 12.1348 127.050 9 977 0 0 12.2272 127.057 3 62 980 12.1497 126.927 STS 55 977 12.1272 126.970 TC 80 12.1854 127.067 3 73 12.1272 126.970 80 973 150 13 273
1971141N07156 1971 49 WP MM DINAH 1971-05-25 18:00:00 TS 12.2088 126.371 970 tokyo main 97 34 OOOO_____OPO__ jtwc_wp WP081971 12.2000 126.400 90 2 12.2000 126.400 9 970 0 0 0 12.2000 126.300 4 77 970 12.2000 126.200 STS 60 970 12.2000 126.400 TC 90 12.2616 126.496 3 77 12.2000 126.400 90 970 120 13 278
1971141N07156 1971 49 WP MM DINAH 1971-05-25 21:00:00 TS 12.3368 125.733 main 24 0 PPPP_____PPP__ WP081971 12.3046 125.837 87 2 12.3047 125.772 9 967 0 0 12.3476 125.478 4 77 967 12.4348 125.493 STS 62 967 12.3046 125.837 TC 87 12.3570 125.877 3 81 12.3046 125.837 87 967 120 13 285
1971141N07156 1971 49 WP MM DINAH 1971-05-26 00:00:00 TS 12.5429 125.057 965 tokyo main 0 0 OOOO_____OOO__ jtwc_wp WP081971 12.5000 125.200 85 2 12.5000 125.100 9 965 0 0 0 12.6000 124.700 4 77 965 12.7000 124.800 T 65 965 12.5000 125.200 TC 85 12.5000 125.200 4 85 12.5000 125.200 85 965 120 15 290
1971141N07156 1971 49 WP MM DINAH 1971-05-26 03:00:00 TS 12.8411 124.294 main 21 0 PPPP_____PPP__ WP081971 12.8427 124.373 82 1 12.8501 124.308 9 962 0 0 12.9069 124.100 4 77 966 12.8574 124.092 T 70 962 12.8427 124.373 TC 82 12.7454 124.442 4 82 12.8427 124.373 82 962 120 16 292
1971141N07156 1971 49 WP MM DINAH 1971-05-26 06:00:00 TS 13.1479 123.504 960 tokyo main 0 0 OOOO_____OPO__ jtwc_wp WP081971 13.2000 123.500 80 1 13.2000 123.500 9 960 0 0 0 13.2000 123.500 4 77 968 13.0000 123.400 T 75 960 13.2000 123.500 TC 80 13.0356 123.631 4 80 13.2000 123.500 80 960 120 16 289
1971141N07156 1971 49 WP MM DINAH 1971-05-26 09:00:00 TS 13.3731 122.750 main 10 0 PPPP_____PPP__ WP081971 13.4372 122.727 77 1 13.3797 122.785 9 965 0 0 13.3801 122.715 4 77 969 13.2071 122.765 T 72 965 13.4372 122.727 TC 77 13.3329 122.805 4 77 13.4372 122.727 77 964 120 15 285
1971141N07156 1971 49 WP MM DINAH 1971-05-26 12:00:00 TS 13.5429 122.014 970 tokyo main 31 0 OOOO_____OOO__ jtwc_wp WP081971 13.6000 122.000 75 1 13.5000 122.100 9 970 0 0 0 13.5000 121.900 4 77 970 13.4000 122.100 T 70 970 13.6000 122.000 TC 75 13.6000 122.000 4 75 13.6000 122.000 75 969 120 14 281
1971141N07156 1971 49 WP MM DINAH 1971-05-26 15:00:00 TS 13.6530 121.289 main 0 0 PPPP_____PPP__ WP081971 13.6997 121.292 70 1 13.6422 121.407 9 974 0 0 13.5847 121.177 4 72 975 13.5001 121.307 T 70 972 13.6997 121.292 TC 70 13.7445 121.257 4 70 13.6997 121.292 70 971 120 14 279
1971141N07156 1971 49 WP MM DINAH 1971-05-26 18:00:00 TS 13.7659 120.578 978 tokyo main 0 0 OOOO_____OPO__ jtwc_wp WP081971 13.8000 120.600 65 1 13.8000 120.700 9 978 0 0 0 13.7000 120.500 4 68 980 13.6000 120.500 T 70 975 13.8000 120.600 TC 65 13.8615 120.545 4 65 13.8000 120.600 65 973 120 14 282
1971141N07156 1971 49 WP MM DINAH 1971-05-26 21:00:00 TS 13.9360 119.869 main 70 70 PPPP_____PPP__ WP081971 13.9699 119.892 60 0 13.9775 119.935 9 981 0 0 13.9198 119.835 4 63 985 13.7472 119.777 T 67 977 13.9699 119.892 TC 60 13.9978 119.861 4 60 13.9699 119.892 60 975 120 14 287
1971141N07156 1971 49 WP MM DINAH 1971-05-27 00:00:00 TS 14.1714 119.186 985 tokyo main 117 117 OOOO_____OOO__ jtwc_wp WP081971 14.2000 119.200 55 0 14.2000 119.200 9 985 0 0 0 14.2000 119.200 3 58 990 14.0000 119.100 T 65 980 14.2000 119.200 TC 55 14.2000 119.200 2 55 14.2000 119.200 55 978 120 14 292
1971141N07156 1971 49 WP MM DINAH 1971-05-27 03:00:00 TS 14.4634 118.541 main 175 175 PPPP_____PPP__ WP081971 14.4548 118.535 57 0 14.4547 118.577 9 987 0 0 14.4697 118.607 3 58 992 14.4198 118.443 T 65 987 14.4548 118.535 TC 57 14.5354 118.558 2 61 14.4548 118.535 57 978 120 14 298
1971141N07156 1971 49 WP MM DINAH 1971-05-27 06:00:00 TS 14.8341 117.919 990 tokyo main 225 221 OOOO_____OPO__ jtwc_wp WP081971 14.8000 117.900 60 0 14.8000 118.000 9 990 0 0 0 14.8000 118.000 3 58 994 14.9000 117.800 T 65 994 14.8000 117.900 TC 60 14.9389 117.935 2 67 14.8000 117.900 60 978 120 15 305
1971141N07156 1971 49 WP MM DINAH 1971-05-27 09:00:00 TS 15.2966 117.305 main 268 268 PPPP_____PPP__ WP081971 15.2921 117.315 70 1 15.2923 117.408 9 985 0 0 15.2349 117.315 3 67 987 15.2998 117.150 T 67 987 15.2921 117.315 TC 70 15.3729 117.320 2 73 15.2921 117.315 70 978 120 15 308
1971141N07156 1971 49 WP MM DINAH 1971-05-27 12:00:00 TS 15.7714 116.671 980 tokyo main 321 321 OOOO_____OOO__ jtwc_wp WP081971 15.8000 116.700 80 1 15.8000 116.800 9 980 0 0 0 15.7000 116.600 4 77 980 15.7000 116.500 T 70 980 15.8000 116.700 TC 80 15.8000 116.700 3 80 15.8000 116.700 80 979 120 16 304
1971141N07156 1971 49 WP MM DINAH 1971-05-27 15:00:00 TS 16.1683 115.959 main 396 396 PPPP_____PPP__ WP081971 16.1727 115.942 75 1 16.1874 116.150 9 980 0 0 16.1225 115.877 4 77 981 16.1649 115.835 T 67 980 16.1727 115.942 TC 75 16.1849 116.021 3 76 16.1727 115.942 75 980 120 16 299
1971141N07156 1971 49 WP MM DINAH 1971-05-27 18:00:00 TS 16.5218 115.263 980 tokyo main 473 473 OOOO_____OPO__ jtwc_wp WP081971 16.5000 115.200 70 1 16.5000 115.500 9 980 0 0 0 16.5000 115.200 4 77 982 16.6000 115.200 T 65 980 16.5000 115.200 TC 70 16.5529 115.340 3 72 16.5000 115.200 70 981 120 14 299
1971141N07156 1971 49 WP MM DINAH 1971-05-27 21:00:00 TS 16.8568 114.667 main 492 435 PPPP_____PPP__ WP081971 16.8646 114.612 67 1 16.7498 114.885 9 982 0 0 16.8222 114.620 4 77 983 16.9372 114.635 T 65 982 16.8646 114.612 TC 67 16.8944 114.690 3 68 16.8646 114.612 67 982 120 13 300
1971141N07156 1971 49 WP MM DINAH 1971-05-28 00:00:00 TS 17.1571 114.129 985 tokyo main 420 363 OOOO_____OOO__ jtwc_wp WP081971 17.2000 114.100 65 1 17.0000 114.300 9 985 0 0 0 17.1000 114.100 4 77 985 17.2000 114.100 T 65 985 17.2000 114.100 TC 65 17.2000 114.100 4 65 17.2000 114.100 65 983 120 12 299
1971141N07156 1971 49 WP MM DINAH 1971-05-28 03:00:00 TS 17.4312 113.591 main 363 300 PPPP_____PPP__ WP081971 17.4725 113.570 62 0 17.3650 113.713 9 987 0 0 17.3573 113.592 4 72 987 17.4151 113.520 T 65 986 17.4725 113.570 TC 62 17.4640 113.601 4 62 17.4725 113.570 62 985 120 11 298
1971141N07156 1971 49 WP MM DINAH 1971-05-28 06:00:00 TS 17.6705 113.109 990 tokyo main 300 253 OOOO_____OPO__ jtwc_wp WP081971 17.7000 113.100 60 0 17.7000 113.200 9 990 0 0 0 17.6000 113.100 4 68 990 17.6000 113.000 T 65 988 17.7000 113.100 TC 60 17.6937 113.166 4 60 17.7000 113.100 60 988 120 9 298
1971141N07156 1971 49 WP MM DINAH 1971-05-28 09:00:00 TS 17.8779 112.721 main 253 214 PPPP_____PPP__ WP081971 17.9073 112.735 57 0 17.8647 112.834 9 992 0 0 17.8499 112.592 4 68 990 17.8071 112.642 T 65 991 17.9073 112.735 TC 57 17.9017 112.773 4 57 17.9073 112.735 57 992 120 8 299
1971141N07156 1971 49 WP MM DINAH 1971-05-28 12:00:00 TS 18.0714 112.357 995 tokyo main 214 167 OOOO_____OOO__ jtwc_wp WP081971 18.1000 112.400 55 0 18.0000 112.500 9 995 0 0 0 18.1000 112.100 4 68 990 18.0000 112.300 T 65 995 18.1000 112.400 TC 55 18.1000 112.400 2 55 18.1000 112.400 55 996 120 8 298
1971141N07156 1971 49 WP MM DINAH 1971-05-28 15:00:00 TS 18.2762 111.937 main 157 110 PPPP_____PPP__ WP081971 18.3000 112.000 52 0 18.2349 112.080 9 995 0 0 18.3573 111.642 4 68 990 18.1424 111.837 T 60 995 18.3000 112.000 TC 52 18.2988 112.002 2 52 18.3000 112.000 52 996 120 9 297
1971141N07156 1971 49 WP MM DINAH 1971-05-28 18:00:00 TS 18.4846 111.503 996 tokyo main 110 62 OOOO_____OPO__ jtwc_wp WP081971 18.5000 111.600 50 0 18.5000 111.600 9 996 0 0 0 18.6000 111.200 4 68 990 18.3000 111.300 STS 55 996 18.5000 111.600 TC 50 18.4922 111.619 2 50 18.5000 111.600 50 997 120 9 297
1971141N07156 1971 49 WP MM DINAH 1971-05-28 21:00:00 TS 18.7029 111.051 main 62 15 PPPP_____PPP__ WP081971 18.6924 111.235 47 0 18.7727 111.028 9 996 0 0 18.8226 110.713 4 58 992 18.5578 110.663 STS 50 996 18.6924 111.235 TC 47 18.6895 111.252 2 47 18.6924 111.235 47 997 120 9 298
1971141N07156 1971 49 WP MM DINAH 1971-05-29 00:00:00 TS 18.9143 110.643 996 tokyo main 10 0 OOOO_____OOO__ jtwc_wp WP081971 18.9000 110.900 45 0 19.0000 110.500 9 996 0 0 0 19.0000 110.300 3 48 995 18.8000 110.100 TS 45 996 18.9000 110.900 TC 45 18.9000 110.900 2 45 18.9000 110.900 45 998 120 8 300
1971141N07156 1971 49 WP MM DINAH 1971-05-29 03:00:00 TS 19.0982 110.337 main 0 0 PPPP_____PPP__ WP081971 19.1424 110.600 42 0 19.1222 110.155 9 997 0 0 19.1148 110.070 3 48 995 18.8996 109.797 TS 42 996 19.1424 110.600 TC 42 19.1234 110.540 2 42 19.1424 110.600 42 998 120 7 304
1971141N07156 1971 49 WP MM DINAH 1971-05-29 06:00:00 TS 19.2803 110.071 998 tokyo main 0 0 OOOO_____OPO__ jtwc_wp WP081971 19.4000 110.300 40 0 19.2000 109.900 9 998 0 0 0 19.2000 109.900 3 48 995 19.0000 109.600 TS 40 997 19.4000 110.300 TC 40 19.3624 110.197 2 40 19.4000 110.300 40 998 120 7 305
1971141N07156 1971 49 WP MM DINAH 1971-05-29 09:00:00 TS 19.4768 109.763 main 0 0 PPPP_____PPP__ WP081971 19.6426 109.942 37 0 19.2849 109.650 9 998 0 0 19.2775 109.657 3 48 995 19.2275 109.328 TS 37 997 19.6426 109.942 TC 37 19.6203 109.881 2 37 19.6426 109.942 37 998 120 7 307
1971141N07156 1971 49 WP MM DINAH 1971-05-29 12:00:00 TS 19.7000 109.471 998 tokyo main 0 0 OOOO_____OOO__ jtwc_wp WP081971 19.9000 109.600 35 0 19.4000 109.400 9 998 0 0 0 19.4000 109.400 3 48 995 19.5000 109.100 TS 35 998 19.9000 109.600 TC 35 19.9000 109.600 2 35 19.9000 109.600 35 999 120 7 312
1971141N07156 1971 49 WP MM DINAH 1971-05-29 15:00:00 TS 19.9471 109.214 main 15 15 PPPP_____PPP__ WP081971 20.1849 109.320 35 0 19.5700 109.100 9 998 0 0 19.6125 109.135 3 48 995 19.7499 108.962 TS 32 998 20.1849 109.320 TC 35 20.1424 109.343 2 35 20.1849 109.320 35 999 120 7 320
1971141N07156 1971 49 WP MM DINAH 1971-05-29 18:00:00 TS 20.2307 109.004 998 tokyo main 54 54 OOOO_____OPO__ jtwc_wp WP081971 20.5000 109.100 35 0 19.8000 108.800 9 998 0 0 0 19.9000 108.900 3 48 995 20.0000 108.900 TD 30 998 20.5000 109.100 TC 35 20.4149 109.124 2 35 20.5000 109.100 35 999 120 7 330
1971141N07156 1971 49 WP MM DINAH 1971-05-29 21:00:00 TS 20.5514 108.840 main 96 84 PPPP_____PPP__ WP081971 20.8424 108.935 35 0 20.0850 108.528 9 998 0 0 20.2500 108.720 3 48 995 20.2425 108.885 TD 30 998 20.8424 108.935 TC 35 20.7550 108.943 2 35 20.8424 108.935 35 999 120 7 336
1971141N07156 1971 49 WP MM DINAH 1971-05-30 00:00:00 TS 20.8640 108.704 998 tokyo main 76 45 OOOO_____OOO__ jtwc_wp WP081971 21.2000 108.800 35 0 20.4000 108.300 9 998 0 0 0 20.6000 108.600 3 48 995 20.5000 108.900 TD 30 998 21.2000 108.800 TC 35 21.2000 108.800 2 35 21.2000 108.800 35 999 120 7 339
1971141N07156 1971 49 WP MM DINAH 1971-05-30 03:00:00 TS 21.1762 108.585 main 45 22 PPPP_____PPP__ WP081971 21.5526 108.655 35 0 20.7075 108.113 9 999 0 0 20.8650 108.527 3 48 995 20.7925 108.900 TD 30 999 21.5526 108.655 TC 35 21.7753 108.693 2 33 21.5526 108.655 35 999 120 6 340
1971141N07156 1971 49 WP MM DINAH 1971-05-30 06:00:00 TS 21.4572 108.473 1000 tokyo main 11 0 OOOO_____OPO__ jtwc_wp WP081971 21.9000 108.500 35 0 21.0000 108.000 9 1000 0 0 0 21.1000 108.500 3 48 995 21.1000 108.900 TD 30 1000 21.9000 108.500 TC 35 22.4575 108.613 2 32 21.9000 108.500 35 1000 120 5 338
1971141N07156 1971 49 WP MM DINAH 1971-05-30 09:00:00 TS 21.6381 108.386 main 0 0 _PPP______P___ WP081971 -1 21.2575 107.977 9 1001 0 0 21.3499 108.455 3 48 995 21.4025 108.900 TD 27 1001 TC 23.2111 108.552 2 31 4 340
1971141N07156 1971 49 WP MM DINAH 1971-05-30 12:00:00 TS 21.8100 108.340 1002 tokyo main 0 0 _OOO______O___ -1 21.5000 108.000 2 1002 0 0 0 21.6000 108.500 3 48 996 21.7000 108.900 TD 25 1002 24.0000 108.500 1 30 2 0
1971141N07156 1971 49 WP MM DINAH 1971-05-30 15:00:00 TS 21.7926 108.360 main 0 0 _PP___________ -1 21.7349 107.963 2 1004 0 0 21.8502 108.757 3 43 997 TD 1 3 41
1971141N07156 1971 49 WP MM DINAH 1971-05-30 18:00:00 TS 22.0571 108.571 1006 tokyo main 0 0 _OO___________ -1 22.0000 108.000 2 1006 0 0 0 22.1000 109.000 2 38 998 1 7 35
1971141N07156 1971 49 WP MM DINAH 1971-05-30 21:00:00 TS 22.3282 108.765 main 0 0 _PP___________ -1 22.3302 108.199 2 1006 0 0 22.3273 109.047 2 30 1001 1 6 21
1971141N07156 1971 49 WP MM DINAH 1971-05-31 00:00:00 TS 22.6250 108.800 1006 tokyo main 0 0 _OO___________ -1 22.7000 108.500 2 1006 0 0 0 22.6000 108.900 1 23 1004 7 343
1971141N07156 1971 49 WP MM DINAH 1971-05-31 03:00:00 TS 22.9704 108.556 main 0 0 __P___________ -1 2 0 0 22.9704 108.556 1 21 1004 10 320
1971141N07156 1971 49 WP MM DINAH 1971-05-31 06:00:00 TS 23.4000 108.100 main 0 __O___________ -1 23.4000 108.100 0 19 1005 12 316

デジタル台風データ・検索

IBTrACS Databaseについて

本データベースは、米国NOAAが公開する1842年以降の世界の熱帯低気圧のベストトラックデータアーカイブInternational Best Track Archive for Climate Stewardship (IBTrACS)を、ウェブで閲覧しやすい形式に変換したものです。

最終更新日:2021-12-03